Time;durP1;ratioP1;P1;durP2;ratioP2;P2;SDS_P1;SDS_P2;PMS_P1;PMS_P2;Temp;Humidity;BMP_temperature;BMP_pressure;BME280_temperature;BME280_humidity;BME280_pressure;Samples;Min_cycle;Max_cycle;Signal;HPM_P1;HPM_P2
2023/02/27 00:01:45;;;;;;;20.60;11.50;;;;;;;0.34;77.49;101003.73;107399;1254;82418;-56
2023/02/27 00:08:16;;;;;;;25.70;13.80;;;;;;;0.33;77.73;101008.96;107357;1257;88944;-61
2023/02/27 00:10:59;;;;;;;23.40;11.50;;;;;;;0.35;77.88;101010.20;107316;1258;93297;-59
2023/02/27 00:13:40;;;;;;;21.80;10.70;;;;;;;0.38;77.98;101010.52;107298;1255;79896;-56
2023/02/27 00:16:17;;;;;;;22.30;12.90;;;;;;;0.39;78.09;101011.89;107286;1256;80806;-55
2023/02/27 00:18:55;;;;;;;20.10;11.60;;;;;;;0.38;78.12;101015.52;107266;1257;97544;-56
2023/02/27 00:21:35;;;;;;;39.30;21.80;;;;;;;0.37;78.18;101018.91;107192;1258;88328;-57
2023/02/27 00:24:11;;;;;;;31.70;17.80;;;;;;;0.34;78.21;101015.40;107231;1257;94895;-62
2023/02/27 00:26:50;;;;;;;26.70;12.90;;;;;;;0.35;78.40;101015.34;107176;1257;80538;-62
2023/02/27 00:29:26;;;;;;;24.20;13.10;;;;;;;0.34;78.43;101019.85;107246;1257;83215;-61
2023/02/27 00:32:12;;;;;;;25.00;13.30;;;;;;;0.35;78.52;101019.64;107208;1260;96961;-61
2023/02/27 00:34:53;;;;;;;24.80;14.20;;;;;;;0.37;78.60;101021.23;107228;1258;88927;-55
2023/02/27 00:37:32;;;;;;;25.30;13.80;;;;;;;0.36;78.70;101024.48;107215;1258;95615;-55
2023/02/27 00:40:12;;;;;;;37.40;18.30;;;;;;;0.41;78.79;101020.40;107221;1257;78785;-61
2023/02/27 00:42:48;;;;;;;44.60;22.00;;;;;;;0.40;78.87;101025.60;107247;1257;81781;-61
2023/02/27 00:45:37;;;;;;;34.80;19.20;;;;;;;0.39;78.94;101026.27;107253;1256;96909;-61
2023/02/27 00:48:14;;;;;;;35.30;17.50;;;;;;;0.34;78.92;101030.30;107206;1256;88574;-60
2023/02/27 00:50:51;;;;;;;28.60;14.70;;;;;;;0.30;79.02;101031.14;107215;1257;95462;-55
2023/02/27 00:53:34;;;;;;;32.20;16.10;;;;;;;0.25;79.00;101033.28;107239;1258;79949;-54
2023/02/27 00:56:11;;;;;;;21.10;12.50;;;;;;;0.20;79.08;101032.90;107231;1260;83227;-58
2023/02/27 00:58:48;;;;;;;34.60;18.40;;;;;;;0.20;79.26;101029.60;107268;1257;96307;-60
2023/02/27 01:01:31;;;;;;;27.00;16.20;;;;;;;0.16;79.41;101035.33;107200;1258;86616;-61
2023/02/27 01:04:14;;;;;;;22.60;14.00;;;;;;;0.16;79.44;101037.11;107198;1257;92400;-56
2023/02/27 01:06:55;;;;;;;21.50;12.70;;;;;;;0.17;79.56;101036.99;107240;1260;79605;-57
2023/02/27 01:09:33;;;;;;;16.40;10.40;;;;;;;0.17;79.82;101036.69;107253;1256;82281;-58
2023/02/27 01:12:08;;;;;;;15.40;9.40;;;;;;;0.19;79.73;101038.67;107210;1259;97518;-58
2023/02/27 01:14:46;;;;;;;10.20;6.80;;;;;;;0.18;79.95;101040.34;107241;1257;88172;-58
2023/02/27 01:17:26;;;;;;;9.80;6.90;;;;;;;0.18;79.90;101035.52;107183;1257;95380;-57
2023/02/27 01:20:04;;;;;;;17.50;10.40;;;;;;;0.17;80.09;101036.81;107226;1257;81367;-57
2023/02/27 01:22:47;;;;;;;14.50;8.60;;;;;;;0.17;80.07;101033.52;107196;1257;82637;-57
2023/02/27 01:25:21;;;;;;;13.30;9.50;;;;;;;0.18;79.98;101037.66;107210;1257;99635;-56
2023/02/27 01:27:59;;;;;;;11.70;7.60;;;;;;;0.17;80.21;101038.66;107203;1257;85839;-56
2023/02/27 01:30:40;;;;;;;10.30;6.30;;;;;;;0.20;80.23;101039.64;107185;1256;94483;-57
2023/02/27 01:33:21;;;;;;;40.10;20.30;;;;;;;0.21;80.27;101041.14;107217;1257;80500;-57
2023/02/27 01:36:05;;;;;;;31.10;16.50;;;;;;;0.19;80.33;101038.49;107237;1257;82715;-57
2023/02/27 01:38:47;;;;;;;32.20;16.30;;;;;;;0.21;80.35;101044.53;107237;1256;96366;-57
2023/02/27 01:41:32;;;;;;;40.40;20.00;;;;;;;0.22;80.53;101046.05;107239;1256;88226;-56
2023/02/27 01:44:12;;;;;;;68.80;33.30;;;;;;;0.22;80.55;101050.28;107208;1257;95268;-59
2023/02/27 01:46:51;;;;;;;46.10;22.60;;;;;;;0.20;80.50;101048.52;107139;1256;81604;-59
2023/02/27 01:49:36;;;;;;;69.20;27.90;;;;;;;0.22;80.70;101052.05;107184;1257;82136;-57
2023/02/27 01:52:23;;;;;;;59.50;24.10;;;;;;;0.24;80.66;101052.48;107218;1256;96163;-57
2023/02/27 01:55:00;;;;;;;21.90;12.70;;;;;;;0.28;80.82;101055.41;107187;1260;88527;-55
2023/02/27 01:57:39;;;;;;;14.60;7.00;;;;;;;0.33;80.87;101057.70;107196;1258;95258;-55
2023/02/27 02:00:17;;;;;;;11.70;6.70;;;;;;;0.29;80.88;101061.14;107207;1258;79402;-59
2023/02/27 02:03:03;;;;;;;11.90;7.50;;;;;;;0.27;81.03;101057.39;107227;1257;82330;-59
2023/02/27 02:05:47;;;;;;;10.30;6.20;;;;;;;0.28;81.01;101060.67;107189;1256;98230;-61
2023/02/27 02:08:38;;;;;;;9.30;5.10;;;;;;;0.26;81.14;101063.82;107212;1256;88456;-60
2023/02/27 02:11:19;;;;;;;8.60;5.50;;;;;;;0.25;81.16;101058.77;107146;1257;93430;-57
2023/02/27 02:14:02;;;;;;;12.70;8.20;;;;;;;0.23;81.25;101059.95;107200;1257;80009;-60
2023/02/27 02:20:39;;;;;;;9.40;5.80;;;;;;;0.26;81.30;101064.38;104015;1292;600330;-59
2023/02/27 02:24:00;;;;;;;8.50;5.70;;;;;;;0.19;81.40;101062.59;106735;1265;81317;-60
2023/02/27 02:27:17;;;;;;;7.70;5.10;;;;;;;0.20;81.51;101065.15;106764;1263;80353;-60
2023/02/27 02:30:59;;;;;;;6.90;4.90;;;;;;;0.22;81.53;101067.81;106723;1264;97966;-60
2023/02/27 02:34:48;;;;;;;12.40;6.10;;;;;;;0.22;81.62;101070.52;106389;1265;604757;-56
2023/02/27 02:38:10;;;;;;;7.70;5.50;;;;;;;0.24;81.80;101076.58;106494;1271;95783;-56
2023/02/27 02:40:57;;;;;;;7.20;5.40;;;;;;;0.23;81.86;101084.43;106340;1270;79284;-54
2023/02/27 02:43:43;;;;;;;7.70;5.50;;;;;;;0.20;82.41;101085.34;106911;1261;82247;-58
2023/02/27 02:46:27;;;;;;;8.70;5.10;;;;;;;0.21;82.07;101087.95;106895;1261;95872;-57
2023/02/27 02:49:11;;;;;;;9.90;5.50;;;;;;;0.22;82.37;101090.67;106952;1261;89213;-59
2023/02/27 02:51:53;;;;;;;5.80;4.00;;;;;;;0.27;82.44;101097.27;106900;1266;93667;-59
2023/02/27 02:54:42;;;;;;;10.40;6.00;;;;;;;0.27;82.36;101093.73;106921;1266;78539;-59
2023/02/27 02:57:26;;;;;;;9.90;7.10;;;;;;;0.27;82.42;101096.85;106897;1261;82757;-59
2023/02/27 03:00:07;;;;;;;9.80;6.30;;;;;;;0.30;82.32;101097.39;106918;1264;97000;-59
2023/02/27 03:02:53;;;;;;;10.90;7.10;;;;;;;0.28;82.57;101097.86;106875;1261;88756;-59
2023/02/27 03:05:35;;;;;;;8.10;6.00;;;;;;;0.19;82.48;101098.69;106817;1264;95682;-56
2023/02/27 03:08:23;;;;;;;8.50;6.30;;;;;;;0.12;82.48;101106.48;106825;1264;80313;-56
2023/02/27 03:11:02;;;;;;;10.50;7.40;;;;;;;0.08;82.61;101114.88;107338;1257;81703;-54
2023/02/27 03:13:50;;;;;;;14.70;9.60;;;;;;;0.06;82.66;101116.60;107318;1257;97528;-60
2023/02/27 03:16:39;;;;;;;16.90;9.90;;;;;;;0.05;82.89;101118.83;107314;1256;87831;-61
2023/02/27 03:19:25;;;;;;;15.70;11.10;;;;;;;0.06;82.81;101121.42;107312;1257;93076;-59
2023/02/27 03:22:06;;;;;;;13.10;9.60;;;;;;;0.04;82.67;101125.56;107319;1255;81082;-58
2023/02/27 03:24:53;;;;;;;13.60;9.00;;;;;;;0.04;82.87;101131.98;107302;1260;82972;-61
2023/02/27 03:27:38;;;;;;;12.60;8.80;;;;;;;0.03;82.87;101139.82;107310;1257;97737;-60
2023/02/27 03:30:20;;;;;;;15.10;10.30;;;;;;;0.02;83.10;101141.00;107311;1257;88345;-59
2023/02/27 03:33:02;;;;;;;17.70;10.80;;;;;;;-0.02;83.01;101147.41;107222;1258;95493;-59
2023/02/27 03:35:49;;;;;;;13.70;9.60;;;;;;;-0.05;83.01;101146.89;107207;1257;80597;-56
2023/02/27 03:38:31;;;;;;;24.10;14.60;;;;;;;-0.03;83.06;101148.38;107274;1257;83167;-56
2023/02/27 03:41:15;;;;;;;27.50;17.70;;;;;;;-0.02;83.13;101149.70;107313;1257;97471;-54
2023/02/27 03:44:06;;;;;;;28.20;17.40;;;;;;;-0.02;83.12;101151.30;107227;1257;89028;-57
2023/02/27 03:46:44;;;;;;;37.60;20.60;;;;;;;-0.01;83.07;101146.48;107241;1256;95189;-55
2023/02/27 03:49:21;;;;;;;23.80;15.60;;;;;;;-0.00;83.20;101151.75;107230;1257;79651;-57
2023/02/27 03:52:02;;;;;;;19.60;12.60;;;;;;;0.04;83.24;101154.66;107180;1257;82340;-56
2023/02/27 03:54:50;;;;;;;22.20;13.30;;;;;;;0.04;83.24;101153.56;107201;1257;98173;-55
2023/02/27 03:57:34;;;;;;;20.50;12.30;;;;;;;0.05;83.29;101157.21;107183;1257;89141;-54
2023/02/27 04:00:19;;;;;;;17.10;10.20;;;;;;;0.04;83.28;101160.50;107156;1257;95293;-58
2023/02/27 04:03:00;;;;;;;15.00;8.90;;;;;;;-0.01;83.26;101160.98;107117;1257;80249;-60
2023/02/27 04:05:36;;;;;;;22.00;10.70;;;;;;;-0.03;83.41;101158.83;107356;1257;81326;-59
2023/02/27 04:08:40;;;;;;;51.70;20.00;;;;;;;-0.01;83.36;101165.95;107312;1257;98382;-61
2023/02/27 04:11:35;;;;;;;34.50;15.60;;;;;;;-0.01;83.54;101172.33;107289;1259;87327;-61
2023/02/27 04:14:35;;;;;;;21.40;12.50;;;;;;;-0.02;83.34;101175.20;107186;1257;95519;-55
2023/02/27 04:17:24;;;;;;;15.00;10.30;;;;;;;-0.02;83.37;101176.80;107148;1257;79895;-54
2023/02/27 04:20:37;;;;;;;26.10;18.30;;;;;;;-0.05;83.33;101178.41;107244;1257;83056;-61
2023/02/27 04:23:23;;;;;;;65.10;38.00;;;;;;;-0.12;83.31;101179.46;106982;1257;97250;-61
2023/02/27 04:26:21;;;;;;;59.90;37.10;;;;;;;-0.12;83.22;101183.13;107172;1257;87582;-54
2023/02/27 04:29:07;;;;;;;39.00;27.90;;;;;;;-0.14;83.15;101185.98;107236;1257;95480;-59
2023/02/27 04:31:56;;;;;;;32.60;21.60;;;;;;;-0.14;83.11;101186.48;107284;1256;81435;-59
2023/02/27 04:34:39;;;;;;;25.70;17.60;;;;;;;-0.15;83.05;101186.71;107207;1257;81260;-56
2023/02/27 04:37:30;;;;;;;27.90;17.90;;;;;;;-0.14;83.14;101191.10;107170;1256;97508;-57
2023/02/27 04:40:11;;;;;;;25.50;16.90;;;;;;;-0.12;83.28;101196.79;107194;1257;87688;-58
2023/02/27 04:42:55;;;;;;;20.70;13.30;;;;;;;-0.08;83.23;101199.86;107196;1260;94088;-55
2023/02/27 04:45:37;;;;;;;42.10;26.10;;;;;;;-0.07;83.21;101205.67;107192;1257;79710;-61
2023/02/27 04:48:18;;;;;;;23.30;14.80;;;;;;;-0.10;83.28;101206.04;107220;1257;80018;-60
2023/02/27 04:51:00;;;;;;;21.50;13.40;;;;;;;-0.09;83.28;101209.00;107220;1257;97091;-55
2023/02/27 04:53:48;;;;;;;29.00;16.20;;;;;;;-0.14;83.37;101210.17;107197;1257;87297;-56
2023/02/27 04:56:31;;;;;;;24.40;14.70;;;;;;;-0.17;83.45;101212.36;107197;1256;93837;-56
2023/02/27 04:59:16;;;;;;;15.00;8.70;;;;;;;-0.16;83.44;101210.88;107330;1257;81488;-60
2023/02/27 05:02:00;;;;;;;21.80;12.20;;;;;;;-0.18;83.52;101214.50;107455;1254;82745;-59
2023/02/27 05:04:45;;;;;;;22.10;12.30;;;;;;;-0.15;83.37;101221.41;107460;1255;95895;-55
2023/02/27 05:07:31;;;;;;;24.70;11.70;;;;;;;-0.10;83.52;101221.43;107435;1254;89292;-55
2023/02/27 05:10:13;;;;;;;20.90;10.00;;;;;;;-0.06;83.47;101228.63;107460;1254;95008;-54
2023/02/27 05:12:58;;;;;;;41.80;20.00;;;;;;;-0.09;83.54;101233.78;107458;1254;78243;-54
2023/02/27 05:15:36;;;;;;;17.50;9.50;;;;;;;-0.06;83.69;101237.13;107459;1254;81479;-59
2023/02/27 05:18:20;;;;;;;13.70;7.10;;;;;;;-0.04;83.66;101238.92;107451;1254;97731;-59
2023/02/27 05:21:10;;;;;;;19.90;9.70;;;;;;;-0.03;83.49;101245.02;107364;1255;87927;-59
2023/02/27 05:23:51;;;;;;;19.10;8.90;;;;;;;-0.09;83.35;101248.30;107331;1257;95350;-57
2023/02/27 05:26:41;;;;;;;20.70;9.50;;;;;;;-0.17;83.24;101252.17;107394;1260;81676;-56
2023/02/27 05:29:28;;;;;;;17.00;8.70;;;;;;;-0.18;83.21;101255.94;107435;1259;82668;-54
2023/02/27 05:32:15;;;;;;;19.80;7.50;;;;;;;-0.19;83.16;101254.98;107434;1254;97826;-54
2023/02/27 05:34:58;;;;;;;11.10;5.10;;;;;;;-0.18;82.78;101260.04;107408;1254;88923;-60
2023/02/27 05:37:46;;;;;;;10.50;4.90;;;;;;;-0.19;82.53;101265.23;107413;1254;95285;-61
2023/02/27 05:40:31;;;;;;;7.60;4.60;;;;;;;-0.17;82.42;101265.10;107441;1254;78277;-56
2023/02/27 05:43:18;;;;;;;9.20;4.50;;;;;;;-0.20;82.34;101268.98;107401;1256;81746;-56
2023/02/27 05:46:06;;;;;;;7.80;4.80;;;;;;;-0.21;82.20;101276.17;107378;1259;97968;-60
2023/02/27 05:48:50;;;;;;;6.20;3.20;;;;;;;-0.24;81.89;101280.13;107345;1257;88597;-59
2023/02/27 05:51:38;;;;;;;5.60;2.90;;;;;;;-0.27;81.74;101281.71;107398;1254;95753;-60
2023/02/27 05:54:23;;;;;;;6.60;3.80;;;;;;;-0.32;81.42;101286.46;107472;1259;81078;-56
2023/02/27 05:56:59;;;;;;;;;;;;;;;-0.35;81.23;101284.15;107482;1254;82257;-54
2023/02/27 05:59:47;;;;;;;4.00;2.70;;;;;;;-0.36;81.15;101285.12;107475;1254;97022;-59
2023/02/27 06:02:34;;;;;;;6.30;4.20;;;;;;;-0.35;81.13;101288.61;107494;1254;88752;-60
2023/02/27 06:05:13;;;;;;;7.90;4.90;;;;;;;-0.33;81.00;101290.54;107500;1254;95512;-61
2023/02/27 06:07:55;;;;;;;7.80;4.70;;;;;;;-0.30;80.64;101296.42;107626;1256;78949;-61
2023/02/27 06:10:34;;;;;;;11.80;6.30;;;;;;;-0.27;80.59;101293.35;107497;1254;80888;-59
2023/02/27 06:13:17;;;;;;;14.40;7.50;;;;;;;-0.24;80.30;101292.11;107452;1254;95402;-59
2023/02/27 06:15:57;;;;;;;10.30;4.70;;;;;;;-0.22;79.98;101291.79;107464;1254;87438;-57
2023/02/27 06:18:38;;;;;;;8.40;3.60;;;;;;;-0.23;79.65;101295.94;107197;1260;93333;-60
2023/02/27 06:21:19;;;;;;;6.90;3.30;;;;;;;-0.20;79.02;101300.36;107294;1256;80008;-60
2023/02/27 06:24:01;;;;;;;16.40;7.40;;;;;;;-0.16;78.83;101300.10;107387;1259;83283;-57
2023/02/27 06:26:42;;;;;;;8.30;4.40;;;;;;;-0.15;78.08;101301.27;107284;1256;96714;-57
2023/02/27 06:29:24;;;;;;;30.90;11.90;;;;;;;-0.11;77.63;101303.44;107305;1259;87783;-55
2023/02/27 06:32:02;;;;;;;21.20;8.00;;;;;;;-0.04;77.23;101310.59;107245;1257;94204;-54
2023/02/27 06:34:40;;;;;;;9.80;4.00;;;;;;;0.02;76.97;101310.21;107324;1256;76474;-54
2023/02/27 06:37:17;;;;;;;13.50;4.30;;;;;;;0.13;76.39;101312.34;107349;1257;81650;-54
2023/02/27 06:39:56;;;;;;;9.10;3.60;;;;;;;0.21;76.01;101321.91;107436;1257;97166;-60
2023/02/27 06:42:41;;;;;;;12.90;5.10;;;;;;;0.33;75.72;101324.27;107378;1257;87925;-60
2023/02/27 06:45:24;;;;;;;6.80;3.30;;;;;;;0.47;75.11;101329.91;107397;1259;94010;-62
2023/02/27 06:47:59;;;;;;;5.70;3.30;;;;;;;0.63;74.92;101332.56;107296;1257;78625;-63
2023/02/27 06:50:33;;;;;;;12.10;6.00;;;;;;;0.75;74.61;101331.94;107302;1256;83401;-59
2023/02/27 06:53:15;;;;;;;5.80;2.10;;;;;;;0.95;74.57;101335.49;107255;1256;97772;-58
2023/02/27 06:55:50;;;;;;;3.90;1.60;;;;;;;1.48;74.49;101336.67;107316;1255;88356;-59
2023/02/27 06:58:31;;;;;;;4.20;2.20;;;;;;;2.07;73.80;101340.41;107309;1256;94653;-62
2023/02/27 07:01:14;;;;;;;3.80;2.40;;;;;;;2.36;73.28;101340.21;107307;1255;79439;-62
2023/02/27 07:03:57;;;;;;;3.50;1.40;;;;;;;2.47;72.83;101340.27;107393;1255;80115;-59
2023/02/27 07:06:37;;;;;;;2.50;1.20;;;;;;;2.38;72.55;101346.40;107363;1256;98620;-57
2023/02/27 07:09:21;;;;;;;3.00;1.80;;;;;;;2.38;72.10;101354.10;107312;1256;88819;-55
2023/02/27 07:12:01;;;;;;;3.30;2.00;;;;;;;2.18;72.02;101358.59;107285;1255;94559;-55
2023/02/27 07:14:40;;;;;;;2.70;1.30;;;;;;;2.25;71.50;101360.90;107324;1257;79999;-60
2023/02/27 07:17:21;;;;;;;4.90;2.20;;;;;;;2.44;70.84;101362.52;107319;1257;82772;-62
2023/02/27 07:20:03;;;;;;;6.30;2.20;;;;;;;2.47;70.99;101361.80;107297;1257;96423;-55
2023/02/27 07:22:40;;;;;;;4.40;2.00;;;;;;;2.96;70.95;101357.10;107267;1257;88017;-55
2023/02/27 07:25:18;;;;;;;3.20;1.70;;;;;;;3.66;69.67;101354.41;107300;1256;94435;-56
2023/02/27 07:28:01;;;;;;;3.70;1.60;;;;;;;4.61;69.30;101358.35;107325;1256;79538;-57
2023/02/27 07:30:41;;;;;;;3.80;1.60;;;;;;;5.88;68.18;101351.04;107277;1260;82811;-60
2023/02/27 07:33:21;;;;;;;2.70;1.60;;;;;;;6.67;67.77;101353.39;107304;1256;99029;-62
2023/02/27 07:36:00;;;;;;;4.10;2.20;;;;;;;6.83;66.98;101350.99;107322;1257;86696;-59
2023/02/27 07:38:40;;;;;;;2.30;1.40;;;;;;;7.30;65.70;101348.27;107268;1257;94996;-57
2023/02/27 07:41:22;;;;;;;3.20;1.40;;;;;;;8.23;65.28;101344.39;107270;1256;78573;-55
2023/02/27 07:43:58;;;;;;;4.10;1.40;;;;;;;8.74;63.99;101344.77;107300;1257;82374;-56
2023/02/27 07:46:39;;;;;;;3.10;1.60;;;;;;;9.73;63.86;101342.45;107290;1260;98672;-56
2023/02/27 07:49:16;;;;;;;3.10;1.50;;;;;;;10.75;61.81;101340.64;107294;1257;89306;-55
2023/02/27 07:51:53;;;;;;;3.00;1.40;;;;;;;11.65;60.16;101334.73;107277;1260;94715;-56
2023/02/27 07:54:30;;;;;;;2.10;1.30;;;;;;;12.49;59.02;101334.39;107272;1256;80163;-56
2023/02/27 07:57:13;;;;;;;2.50;1.50;;;;;;;13.11;58.43;101335.48;107275;1256;83111;-57
2023/02/27 08:00:00;;;;;;;2.40;1.20;;;;;;;13.57;57.34;101338.58;107211;1257;99195;-56
2023/02/27 08:02:44;;;;;;;4.80;1.50;;;;;;;13.88;55.99;101343.33;107242;1260;88076;-56
2023/02/27 08:05:22;;;;;;;2.80;1.50;;;;;;;14.36;55.78;101351.09;107261;1257;94609;-56
2023/02/27 08:07:59;;;;;;;3.90;1.40;;;;;;;14.91;54.28;101350.95;107280;1257;79650;-55
2023/02/27 08:10:41;;;;;;;2.20;1.30;;;;;;;15.25;53.34;101347.86;107208;1257;82732;-59
2023/02/27 08:13:16;;;;;;;1.90;1.00;;;;;;;15.26;50.43;101350.50;107266;1257;98291;-59
2023/02/27 08:15:53;;;;;;;5.30;3.40;;;;;;;15.52;50.50;101346.73;107243;1257;86857;-59
2023/02/27 08:18:34;;;;;;;16.10;8.60;;;;;;;15.64;49.33;101350.09;107315;1254;92483;-59
2023/02/27 08:21:17;;;;;;;5.20;3.20;;;;;;;15.37;48.99;101355.02;107437;1254;80161;-55
2023/02/27 08:23:57;;;;;;;18.70;14.30;;;;;;;15.60;47.19;101352.73;107459;1254;82815;-56
2023/02/27 08:26:35;;;;;;;4.40;3.50;;;;;;;16.01;46.97;101358.45;107467;1254;97971;-56
2023/02/27 08:29:17;;;;;;;17.50;15.30;;;;;;;16.49;45.80;101361.49;107468;1254;89829;-57
2023/02/27 08:31:58;;;;;;;19.30;16.60;;;;;;;16.44;44.35;101366.63;107459;1254;93787;-56
2023/02/27 08:34:38;;;;;;;8.70;7.80;;;;;;;16.41;44.08;101369.64;107463;1256;80134;-62
2023/02/27 08:37:15;;;;;;;4.60;2.50;;;;;;;16.22;44.69;101374.37;107494;1254;82091;-62
2023/02/27 08:39:58;;;;;;;3.00;1.90;;;;;;;15.78;43.65;101376.96;107463;1254;97865;-60
2023/02/27 08:42:39;;;;;;;12.20;9.20;;;;;;;15.81;43.20;101376.32;107436;1259;89167;-60
2023/02/27 08:45:15;;;;;;;102.10;76.40;;;;;;;15.68;43.10;101378.98;107463;1254;95156;-56
2023/02/27 08:47:58;;;;;;;50.10;38.00;;;;;;;15.44;42.30;101382.80;107420;1254;80309;-54
2023/02/27 08:50:34;;;;;;;10.30;6.20;;;;;;;14.37;42.26;101387.52;107452;1254;80577;-59
2023/02/27 08:53:15;;;;;;;3.00;1.80;;;;;;;13.93;40.79;101391.42;107451;1254;98841;-57
2023/02/27 08:55:53;;;;;;;52.20;46.60;;;;;;;12.00;40.49;101398.08;107457;1254;87003;-57
2023/02/27 08:58:35;;;;;;;34.40;28.30;;;;;;;11.73;41.43;101402.52;107454;1254;95162;-56
2023/02/27 09:01:09;;;;;;;7.00;6.10;;;;;;;11.36;41.30;101406.26;107585;1254;80306;-59
2023/02/27 09:03:49;;;;;;;16.10;12.50;;;;;;;12.44;40.98;101406.02;107612;1252;82033;-60
2023/02/27 09:06:28;;;;;;;3.60;2.40;;;;;;;12.40;40.94;101403.47;107557;1254;98948;-58
2023/02/27 09:09:04;;;;;;;8.10;6.40;;;;;;;11.06;40.84;101411.88;107660;1251;87486;-62
2023/02/27 09:11:39;;;;;;;2.00;1.50;;;;;;;10.06;40.84;101414.27;107678;1251;94117;-60
2023/02/27 09:14:17;;;;;;;10.70;9.60;;;;;;;9.44;41.23;101424.30;107737;1251;78295;-61
2023/02/27 09:16:54;;;;;;;14.00;11.20;;;;;;;9.03;41.86;101426.31;107659;1251;83307;-60
2023/02/27 09:19:29;;;;;;;3.30;2.60;;;;;;;9.18;42.14;101433.73;107658;1251;98388;-55
2023/02/27 09:22:07;;;;;;;7.40;5.50;;;;;;;9.14;42.45;101437.55;107710;1254;86784;-55
2023/02/27 09:24:46;;;;;;;4.20;3.20;;;;;;;9.45;42.65;101433.92;107693;1251;94833;-55
2023/02/27 09:27:24;;;;;;;2.40;1.80;;;;;;;10.10;42.79;101439.11;107642;1254;79835;-56
2023/02/27 09:30:00;;;;;;;1.70;1.20;;;;;;;11.15;41.89;101437.77;107710;1251;82043;-61
2023/02/27 09:32:37;;;;;;;2.70;1.70;;;;;;;11.76;40.72;101436.91;107660;1251;98773;-62
2023/02/27 09:35:14;;;;;;;4.00;2.80;;;;;;;10.89;39.25;101446.05;107699;1251;88778;-57
2023/02/27 09:37:59;;;;;;;4.60;4.10;;;;;;;9.67;40.32;101452.96;107651;1251;94639;-57
2023/02/27 09:40:44;;;;;;;13.20;10.10;;;;;;;8.82;41.01;101451.80;107693;1251;78878;-59
2023/02/27 09:43:26;;;;;;;3.90;1.70;;;;;;;8.16;40.91;101462.63;107698;1251;82792;-59
2023/02/27 09:46:05;;;;;;;2.80;1.60;;;;;;;7.06;40.50;101472.14;107653;1254;99006;-56
2023/02/27 09:48:48;;;;;;;3.00;1.50;;;;;;;6.57;41.77;101476.90;107684;1251;87924;-59
2023/02/27 09:51:26;;;;;;;12.10;10.00;;;;;;;6.16;42.60;101477.91;107668;1254;94432;-62
2023/02/27 09:54:02;;;;;;;2.20;1.40;;;;;;;5.90;43.33;101485.86;107664;1251;77433;-60
2023/02/27 09:56:47;;;;;;;2.90;1.60;;;;;;;5.84;43.11;101491.04;107691;1251;79378;-61
2023/02/27 09:59:35;;;;;;;4.00;2.50;;;;;;;5.65;43.80;101488.91;107687;1254;98615;-55
2023/02/27 10:02:30;;;;;;;2.80;1.60;;;;;;;5.32;44.39;101495.69;107672;1251;87485;-57
2023/02/27 10:05:18;;;;;;;2.80;1.50;;;;;;;5.13;44.74;101498.00;107651;1251;94542;-57
2023/02/27 10:08:05;;;;;;;3.10;1.70;;;;;;;5.11;44.94;101494.06;107645;1254;78787;-56
2023/02/27 10:10:50;;;;;;;3.20;1.50;;;;;;;4.77;44.83;101500.09;107708;1251;81969;-55
2023/02/27 10:13:48;;;;;;;3.80;1.20;;;;;;;4.96;44.89;101498.39;107717;1251;98462;-55
2023/02/27 10:16:29;;;;;;;3.10;1.70;;;;;;;5.12;45.00;101502.60;107722;1251;89829;-55
2023/02/27 10:19:16;;;;;;;3.40;1.50;;;;;;;4.94;45.25;101501.36;107708;1251;94756;-59
2023/02/27 10:21:56;;;;;;;3.30;1.90;;;;;;;4.77;44.83;101504.59;107598;1254;79359;-60
2023/02/27 10:24:48;;;;;;;13.50;8.80;;;;;;;4.51;45.34;101498.55;107716;1251;83107;-56
2023/02/27 10:27:27;;;;;;;2.90;1.70;;;;;;;4.47;45.79;101505.14;107643;1251;97886;-56
2023/02/27 10:30:20;;;;;;;1.60;1.10;;;;;;;4.50;45.87;101503.63;107676;1250;88149;-61
2023/02/27 10:33:06;;;;;;;1.90;1.30;;;;;;;4.40;46.23;101500.64;107345;1250;436650;-60
2023/02/27 10:35:47;;;;;;;7.70;4.60;;;;;;;4.55;46.37;101509.13;107622;1254;79738;-61
2023/02/27 10:38:36;;;;;;;18.80;10.60;;;;;;;4.46;46.12;101511.89;107654;1255;82736;-61
2023/02/27 10:41:20;;;;;;;5.80;3.30;;;;;;;4.39;46.38;101509.65;107605;1251;98339;-61
2023/02/27 10:44:01;;;;;;;46.00;23.90;;;;;;;4.33;46.82;101511.07;107656;1251;89225;-56
2023/02/27 10:46:42;;;;;;;43.90;26.60;;;;;;;4.17;46.92;101513.90;107676;1251;96670;-55
2023/02/27 10:49:20;;;;;;;7.00;4.20;;;;;;;3.97;47.18;101520.13;107735;1254;79057;-57
2023/02/27 10:52:12;;;;;;;4.80;2.10;;;;;;;3.96;46.82;101523.46;107682;1251;82253;-57
2023/02/27 10:54:54;;;;;;;4.10;1.40;;;;;;;3.75;46.35;101518.48;107666;1254;97123;-59
2023/02/27 10:57:40;;;;;;;;;;;;;;;3.76;46.63;101519.31;107650;1251;88589;-59
2023/02/27 11:00:33;;;;;;;3.10;2.00;;;;;;;3.67;47.20;101522.55;107694;1251;93068;-57
2023/02/27 11:03:25;;;;;;;2.50;1.30;;;;;;;3.66;47.20;101529.74;107654;1254;79079;-57
2023/02/27 11:06:02;;;;;;;2.60;1.50;;;;;;;3.58;47.53;101528.34;107659;1256;81526;-58
2023/02/27 11:08:42;;;;;;;15.50;9.40;;;;;;;3.49;47.85;101527.06;107702;1251;98109;-56
2023/02/27 11:11:31;;;;;;;4.70;2.70;;;;;;;3.56;48.24;101529.94;107723;1251;89370;-57
2023/02/27 11:14:31;;;;;;;3.20;2.10;;;;;;;3.67;48.11;101534.45;107662;1251;94721;-59
2023/02/27 11:17:21;;;;;;;3.10;1.60;;;;;;;3.81;48.37;101532.83;107684;1251;79556;-60
2023/02/27 11:20:00;;;;;;;7.80;5.40;;;;;;;3.81;47.87;101533.69;107592;1254;82233;-60
2023/02/27 11:22:41;;;;;;;8.20;4.70;;;;;;;3.67;48.07;101530.48;107521;1253;97415;-60
2023/02/27 11:25:24;;;;;;;3.80;2.30;;;;;;;3.71;47.65;101528.46;107588;1253;87194;-56
2023/02/27 11:28:21;;;;;;;2.50;1.30;;;;;;;3.69;47.57;101536.41;107570;1254;95665;-57
2023/02/27 11:31:06;;;;;;;3.70;1.50;;;;;;;3.64;47.02;101536.45;107581;1253;77187;-59
2023/02/27 11:33:59;;;;;;;2.60;1.50;;;;;;;3.52;47.03;101532.40;107563;1253;82593;-55
2023/02/27 11:36:50;;;;;;;2.40;1.40;;;;;;;3.32;47.20;101536.56;107561;1253;99022;-55
2023/02/27 11:39:40;;;;;;;4.00;1.50;;;;;;;3.34;47.16;101537.19;107557;1253;89781;-55
2023/02/27 11:42:24;;;;;;;2.70;1.40;;;;;;;3.27;47.30;101540.89;107530;1254;95579;-55
2023/02/27 11:45:04;;;;;;;57.30;29.50;;;;;;;3.28;47.80;101539.23;107454;1253;78001;-59
2023/02/27 11:47:57;;;;;;;8.90;4.00;;;;;;;3.20;48.25;101537.38;107548;1253;82224;-58
2023/02/27 11:51:06;;;;;;;24.40;12.20;;;;;;;3.14;48.65;101531.75;107547;1253;98632;-59
2023/02/27 11:54:14;;;;;;;93.80;37.40;;;;;;;3.10;48.96;101533.67;107465;1253;89125;-53
2023/02/27 11:56:56;;;;;;;183.70;77.20;;;;;;;3.07;49.33;101532.84;107535;1253;95905;-55
2023/02/27 11:59:45;;;;;;;123.60;60.90;;;;;;;3.05;49.68;101533.84;107579;1253;78567;-59
2023/02/27 12:02:29;;;;;;;26.20;14.90;;;;;;;3.07;49.87;101533.52;107450;1254;83671;-60
2023/02/27 12:05:13;;;;;;;7.40;4.10;;;;;;;3.13;49.86;101531.96;107564;1254;98997;-56
2023/02/27 12:07:53;;;;;;;4.80;3.90;;;;;;;3.04;49.96;101536.05;107577;1253;87842;-57
2023/02/27 12:10:38;;;;;;;2.70;1.60;;;;;;;2.93;49.66;101536.83;107534;1254;93372;-55
2023/02/27 12:13:23;;;;;;;3.80;2.00;;;;;;;2.91;49.55;101538.27;107554;1253;79837;-55
2023/02/27 12:16:13;;;;;;;2.50;1.30;;;;;;;2.83;49.29;101541.68;107587;1253;83314;-57
2023/02/27 12:18:58;;;;;;;2.40;1.50;;;;;;;2.79;49.16;101540.20;107657;1255;97140;-55
2023/02/27 12:21:44;;;;;;;2.70;1.40;;;;;;;2.86;48.93;101542.35;107707;1255;89189;-55
2023/02/27 12:24:31;;;;;;;2.40;1.30;;;;;;;2.79;49.20;101540.01;107683;1251;94629;-59
2023/02/27 12:27:22;;;;;;;4.50;2.20;;;;;;;2.68;49.27;101542.07;107651;1251;77533;-59
2023/02/27 12:30:07;;;;;;;35.10;20.00;;;;;;;2.69;49.73;101544.88;107675;1256;82595;-54
2023/02/27 12:32:51;;;;;;;25.20;13.40;;;;;;;2.69;50.20;101547.38;107694;1251;98025;-55
2023/02/27 12:35:32;;;;;;;13.90;9.30;;;;;;;2.65;50.17;101546.59;107715;1255;88432;-55
2023/02/27 12:38:18;;;;;;;9.30;5.80;;;;;;;2.48;50.60;101551.02;107639;1255;95152;-55
2023/02/27 12:41:15;;;;;;;4.90;2.10;;;;;;;2.50;50.66;101551.61;107663;1251;76845;-59